TFM - Tactical Decision Aid
ID: Runway Winds: CIG/VIS Threshold:

KRWL - Rawlins Muni, WY, US

Updated at: 1209 UTC 23 Jun 2021
Latest TAF at: 1144 UTC 23 Jun 2021

TAF Board

Time1153Z 23/13Z 23/14Z 23/15Z 23/16Z 23/17Z 23/18Z 23/19Z 23/20Z 23/21Z 23/22Z 23/23Z 24/00Z 24/01Z>>
Type OBS PRVL PRVL PRVL PRVL PRVL PRVL PRVL PRVL PRVL PRVL PRVL PRVL PRVL
VIS 10 >6 >6 >6 >6 >6 >6 >6 >6 >6 >6 >6 >6 >6
CIG -- -- -- -- -- -- -- -- -- -- -- -- -- 250
Cover CLR FEW FEW FEW FEW SCT SCT SCT SCT SCT SCT SCT SCT BKN
FltCat VFR VFR VFR VFR VFR VFR VFR VFR VFR VFR VFR VFR VFR VFR
WX -- -- -- -- -- -- -- -- -- -- -- -- -- --
WDir 110 320 320 320 320 240 240 240 240 240 240 240 240 270
WSpd 6 9 9 9 9 13 13 13 13 13 13 13 13 13
WGst -- -- -- -- -- 25 25 25 25 25 25 25 25 --

TDA Impact Legend

  None Marginal Slight Moderate High
Visibility (sm) >5 3≤X≤5 2≤X<3 1.25≤X<2 <1.25
Ceiling (100 ft) >30 10≤X≤30 9≤X<10 4≤X<9 <4
Wind Speed (kt) <15 15≤X<25 25≤X<30 ≥30
Wind Gust (kt) <15 15≤X<25 25≤X<35 ≥35
Weather No Wx Reported VCTS -TS,-FZRA TS,FZRA +TS,+FZRA
TAF
KRWL 231144Z 2312/2412 32009KT P6SM FEW150
  FM231700 24013G25KT P6SM SCT120
  FM240100 27013KT P6SM BKN250


METAR
KRWL 231153Z AUTO 11006KT 10SM CLR 12/M02 A3006 RMK AO2 SLP074 70001 T01221017 10222 20122 53006
KRWL 231053Z AUTO 32004KT 10SM CLR 13/M02 A3004 RMK AO2 SLP064 T01281017
KRWL 230953Z AUTO 34009KT 10SM CLR 15/M02 A3004 RMK AO2 SLP058 T01501017
KRWL 230853Z AUTO 08006KT 10SM CLR 15/M02 A3003 RMK AO2 SLP056 T01501017 53001

Radar Display
Forecast Discussion